createdAt,value
2018-12-22T00:00:09.737Z,87.60
2018-12-22T00:02:39.791Z,87.60
2018-12-22T00:05:07.760Z,87.10
2018-12-22T00:07:35.696Z,86.90
2018-12-22T00:10:04.145Z,87.00
2018-12-22T00:12:32.184Z,86.60
2018-12-22T00:14:59.964Z,86.30
2018-12-22T00:17:28.022Z,86.00
2018-12-22T00:19:55.918Z,85.90
2018-12-22T00:22:23.838Z,85.60
2018-12-22T00:24:51.780Z,85.40
2018-12-22T00:27:19.639Z,85.20
2018-12-22T00:29:47.473Z,85.00
2018-12-22T00:32:15.406Z,85.30
2018-12-22T00:34:47.959Z,84.80
2018-12-22T00:37:19.854Z,84.70
2018-12-22T00:39:47.728Z,85.00
2018-12-22T00:42:15.673Z,84.90
2018-12-22T00:44:43.695Z,85.10
2018-12-22T00:47:11.869Z,84.90
2018-12-22T00:49:39.825Z,84.70
2018-12-22T00:52:07.741Z,84.80
2018-12-22T00:54:35.687Z,85.10
2018-12-22T00:57:03.962Z,84.90
2018-12-22T00:59:32.043Z,84.20
2018-12-22T01:02:00.025Z,84.00
2018-12-22T01:04:28.029Z,84.20
2018-12-22T01:06:56.068Z,84.20
2018-12-22T01:09:23.961Z,84.20
2018-12-22T01:11:51.959Z,83.80
2018-12-22T01:14:19.993Z,84.20
2018-12-22T01:16:47.898Z,84.30
2018-12-22T01:19:15.921Z,84.30
2018-12-22T01:24:44.245Z,84.50
2018-12-22T01:27:12.204Z,84.50
2018-12-22T01:29:40.176Z,84.70
2018-12-22T01:32:08.150Z,84.40
2018-12-22T01:34:35.974Z,84.30
2018-12-22T01:37:04.065Z,84.60
2018-12-22T01:39:31.966Z,84.70
2018-12-22T01:42:00.159Z,85.30
2018-12-22T01:44:28.641Z,85.50
2018-12-22T01:46:56.525Z,85.40
2018-12-22T01:49:26.458Z,85.90
2018-12-22T01:51:54.462Z,85.50
2018-12-22T01:54:22.600Z,86.30
2018-12-22T01:56:51.533Z,85.40
2018-12-22T01:59:19.429Z,85.50
2018-12-22T02:01:47.201Z,85.60
2018-12-22T02:04:15.167Z,85.50
2018-12-22T02:06:43.133Z,85.40
2018-12-22T02:09:10.957Z,85.40
2018-12-22T02:11:39.214Z,85.70
2018-12-22T02:14:07.272Z,85.50
2018-12-22T02:16:35.172Z,85.70
2018-12-22T02:19:03.107Z,85.90
2018-12-22T02:21:31.108Z,86.50
2018-12-22T02:23:58.997Z,86.90
2018-12-22T02:26:26.827Z,87.30
2018-12-22T02:28:56.924Z,87.70
2018-12-22T02:31:26.042Z,88.20
2018-12-22T02:33:53.989Z,88.40
2018-12-22T02:36:22.066Z,88.40
2018-12-22T02:38:49.903Z,88.50
2018-12-22T02:41:17.771Z,88.80
2018-12-22T02:43:45.865Z,88.50
2018-12-22T02:46:13.716Z,88.70
2018-12-22T02:48:41.538Z,89.70
2018-12-22T02:51:09.438Z,90.10
2018-12-22T02:53:37.225Z,90.40
2018-12-22T02:56:05.242Z,90.50
2018-12-22T02:58:33.116Z,90.80
2018-12-22T03:01:01.537Z,90.90
2018-12-22T03:03:29.595Z,91.00
2018-12-22T03:05:57.412Z,91.10
2018-12-22T03:08:25.409Z,91.20
2018-12-22T03:10:54.042Z,91.20
2018-12-22T03:13:21.987Z,91.40
2018-12-22T03:15:49.800Z,91.50
2018-12-22T03:18:17.586Z,91.70
2018-12-22T03:20:45.428Z,91.80
2018-12-22T03:23:13.367Z,91.90
2018-12-22T03:25:41.330Z,92.00
2018-12-22T03:28:09.191Z,92.00
2018-12-22T03:30:36.986Z,92.00
2018-12-22T03:33:05.130Z,91.90
2018-12-22T03:35:32.969Z,91.90
2018-12-22T03:38:00.765Z,91.80
2018-12-22T03:40:29.792Z,91.50
2018-12-22T03:42:57.681Z,91.30
2018-12-22T03:45:27.033Z,91.20
2018-12-22T03:47:55.195Z,91.10
2018-12-22T03:50:23.069Z,90.70
2018-12-22T03:52:50.931Z,90.60
2018-12-22T03:55:18.775Z,90.40
2018-12-22T03:57:46.623Z,90.20
2018-12-22T04:00:14.415Z,90.10
2018-12-22T04:02:42.328Z,89.90
2018-12-22T04:05:10.163Z,90.50
2018-12-22T04:07:38.032Z,90.10
2018-12-22T04:10:06.660Z,90.00
2018-12-22T04:12:34.505Z,90.20
2018-12-22T04:15:02.517Z,90.00
2018-12-22T04:17:30.454Z,90.00
2018-12-22T04:19:58.411Z,90.20
2018-12-22T04:22:26.372Z,90.10
2018-12-22T04:24:54.803Z,90.10
2018-12-22T04:27:22.668Z,90.50
2018-12-22T04:29:50.450Z,90.30
2018-12-22T04:32:18.304Z,90.30
2018-12-22T04:34:46.316Z,90.30
2018-12-22T04:37:14.189Z,90.40
2018-12-22T04:39:44.584Z,90.40
2018-12-22T04:42:12.389Z,90.40
2018-12-22T04:44:40.429Z,90.30
2018-12-22T04:47:08.365Z,90.20
2018-12-22T04:49:36.168Z,90.10
2018-12-22T04:52:04.106Z,90.40
2018-12-22T04:54:31.952Z,90.30
2018-12-22T04:56:59.754Z,90.20
2018-12-22T04:59:27.580Z,90.30
2018-12-22T05:01:55.724Z,90.20
2018-12-22T05:04:23.725Z,90.30
2018-12-22T05:06:51.704Z,90.40
2018-12-22T05:09:19.567Z,90.30
2018-12-22T05:11:47.404Z,90.30
2018-12-22T05:14:15.343Z,90.30
2018-12-22T05:16:44.602Z,90.30
2018-12-22T05:19:12.657Z,90.00
2018-12-22T05:21:40.546Z,89.50
2018-12-22T05:24:08.470Z,89.40
2018-12-22T05:26:36.360Z,89.10
2018-12-22T05:29:04.225Z,88.90
2018-12-22T05:31:32.149Z,88.90
2018-12-22T05:34:00.140Z,88.40
2018-12-22T05:36:28.056Z,88.70
2018-12-22T05:38:56.222Z,88.50
2018-12-22T05:41:24.073Z,88.40
2018-12-22T05:43:52.049Z,88.40
2018-12-22T05:46:19.977Z,88.30
2018-12-22T05:48:47.849Z,88.00
2018-12-22T05:51:16.058Z,87.80
2018-12-22T05:53:44.165Z,87.80
2018-12-22T05:56:12.054Z,87.80
2018-12-22T05:58:40.076Z,87.80
2018-12-22T06:01:08.009Z,87.50
2018-12-22T06:03:35.858Z,87.40
2018-12-22T06:06:03.869Z,87.50
2018-12-22T06:08:31.729Z,87.30
2018-12-22T06:10:59.933Z,86.90
2018-12-22T06:13:27.904Z,86.90
2018-12-22T06:15:55.739Z,86.90
2018-12-22T06:18:23.613Z,86.70
2018-12-22T06:20:51.598Z,86.80
2018-12-22T06:23:19.659Z,87.20
2018-12-22T06:25:47.530Z,87.00
2018-12-22T06:28:15.383Z,86.80
2018-12-22T06:30:43.238Z,86.90
2018-12-22T06:33:11.166Z,87.10
2018-12-22T06:35:39.162Z,87.20
2018-12-22T06:38:07.044Z,87.30
2018-12-22T06:40:34.980Z,87.40
2018-12-22T06:43:02.857Z,87.40
2018-12-22T06:45:37.318Z,87.40
2018-12-22T06:48:05.248Z,87.40
2018-12-22T06:50:33.611Z,87.50
2018-12-22T06:53:02.435Z,87.20
2018-12-22T06:55:30.276Z,87.20
2018-12-22T06:57:58.450Z,87.20
2018-12-22T07:00:26.384Z,88.00
2018-12-22T07:02:54.802Z,86.90
2018-12-22T07:05:22.693Z,86.70
2018-12-22T07:07:50.598Z,87.00
2018-12-22T07:10:18.646Z,87.10
2018-12-22T07:12:47.726Z,86.80
2018-12-22T07:15:15.605Z,86.50
2018-12-22T07:17:43.800Z,86.50
2018-12-22T07:20:12.530Z,86.30
2018-12-22T07:22:40.567Z,86.50
2018-12-22T07:25:08.738Z,86.10
2018-12-22T07:27:36.779Z,86.00
2018-12-22T07:30:07.494Z,85.90
2018-12-22T07:32:36.152Z,85.50
2018-12-22T07:35:04.864Z,85.40
2018-12-22T07:37:33.774Z,85.40
2018-12-22T07:40:01.593Z,85.00
2018-12-22T07:42:29.467Z,84.80
2018-12-22T07:44:59.874Z,84.80
2018-12-22T07:47:27.746Z,84.90
2018-12-22T07:49:55.934Z,84.60
2018-12-22T07:52:23.795Z,84.40
2018-12-22T07:57:31.612Z,84.30
2018-12-22T07:59:59.683Z,84.20
2018-12-22T08:02:30.771Z,84.10
2018-12-22T08:04:58.671Z,83.90
2018-12-22T08:07:27.148Z,83.70
2018-12-22T08:09:55.010Z,83.60
2018-12-22T08:12:23.245Z,83.50
2018-12-22T08:14:51.217Z,83.50
2018-12-22T08:17:19.208Z,83.60
2018-12-22T08:19:48.419Z,83.70
2018-12-22T08:22:18.528Z,83.60
2018-12-22T08:24:46.850Z,83.70
2018-12-22T08:27:16.424Z,83.50
2018-12-22T08:29:45.875Z,83.20
2018-12-22T08:32:13.876Z,83.90
2018-12-22T08:34:41.729Z,83.20
2018-12-22T08:37:09.626Z,83.10
2018-12-22T08:39:37.508Z,83.30
2018-12-22T08:42:05.534Z,83.10
2018-12-22T08:44:33.427Z,83.30
2018-12-22T08:47:01.374Z,83.50
2018-12-22T08:49:29.636Z,83.70
2018-12-22T08:51:57.809Z,84.40
2018-12-22T08:54:25.636Z,84.00
2018-12-22T08:56:54.454Z,84.20
2018-12-22T08:59:22.313Z,84.70
2018-12-22T09:01:50.164Z,85.30
2018-12-22T09:04:18.549Z,85.50
2018-12-22T09:06:46.345Z,86.00
2018-12-22T09:09:14.287Z,85.90
2018-12-22T09:11:42.155Z,85.70
2018-12-22T09:14:09.977Z,85.60
2018-12-22T09:16:37.795Z,85.70
2018-12-22T09:19:05.660Z,85.40
2018-12-22T09:21:33.543Z,85.50
2018-12-22T09:26:38.834Z,85.60
2018-12-22T09:29:06.729Z,85.40
2018-12-22T09:31:37.232Z,85.50
2018-12-22T09:34:13.055Z,85.40
2018-12-22T09:36:34.934Z,85.40
2018-12-22T09:39:04.877Z,85.50
2018-12-22T09:41:32.861Z,85.70
2018-12-22T09:44:07.461Z,85.60
2018-12-22T09:46:35.193Z,85.40
2018-12-22T09:49:03.088Z,85.20
2018-12-22T09:51:30.870Z,84.90
2018-12-22T09:53:58.784Z,84.60
2018-12-22T09:56:26.665Z,84.30
2018-12-22T09:58:54.424Z,83.90
2018-12-22T10:01:22.212Z,84.00
2018-12-22T10:03:50.012Z,83.90
2018-12-22T10:06:18.665Z,83.90
2018-12-22T10:08:46.568Z,83.80
2018-12-22T10:11:14.389Z,84.60
2018-12-22T10:13:42.502Z,83.70
2018-12-22T10:16:10.288Z,83.10
2018-12-22T10:18:38.740Z,82.80
2018-12-22T10:21:06.598Z,82.50
2018-12-22T10:23:34.473Z,81.80
2018-12-22T10:26:03.511Z,81.10
2018-12-22T10:28:31.508Z,80.90
2018-12-22T10:30:59.311Z,80.90
2018-12-22T10:33:27.445Z,80.20
2018-12-22T10:35:55.478Z,81.10
2018-12-22T10:38:23.301Z,80.70
2018-12-22T10:40:51.225Z,80.60
2018-12-22T10:43:19.078Z,80.60
2018-12-22T10:45:47.047Z,81.20
2018-12-22T10:48:14.928Z,81.60
2018-12-22T10:50:42.767Z,81.60
2018-12-22T10:53:10.653Z,81.90
2018-12-22T10:55:38.515Z,82.80
2018-12-22T10:58:06.643Z,83.00
2018-12-22T11:00:34.501Z,83.30
2018-12-22T11:03:02.470Z,83.50
2018-12-22T11:05:30.357Z,83.50
2018-12-22T11:07:58.511Z,83.20
2018-12-22T11:10:27.098Z,82.90
2018-12-22T11:13:00.851Z,83.20
2018-12-22T11:15:28.727Z,83.50
2018-12-22T11:17:56.774Z,83.60
2018-12-22T11:20:24.752Z,83.10
2018-12-22T11:22:52.658Z,82.90
2018-12-22T11:25:26.322Z,82.70
2018-12-22T11:27:54.363Z,82.20
2018-12-22T11:30:27.977Z,81.40
2018-12-22T11:32:55.928Z,80.30
2018-12-22T11:35:23.761Z,80.30
2018-12-22T11:37:51.643Z,80.10
2018-12-22T11:40:19.505Z,80.20
2018-12-22T11:42:48.019Z,80.00
2018-12-22T11:45:16.102Z,80.10
2018-12-22T11:48:13.626Z,80.00
2018-12-22T11:50:41.733Z,80.00
2018-12-22T11:53:09.921Z,80.10
2018-12-22T11:55:37.731Z,79.90
2018-12-22T11:58:05.741Z,80.20
2018-12-22T12:00:33.770Z,81.60
2018-12-22T12:03:01.610Z,81.80
2018-12-22T12:05:29.508Z,82.00
2018-12-22T12:07:57.366Z,82.10
2018-12-22T12:10:25.391Z,82.80
2018-12-22T12:12:53.518Z,82.30
2018-12-22T12:15:25.573Z,82.40
2018-12-22T12:18:41.235Z,82.50
2018-12-22T12:21:09.109Z,82.70
2018-12-22T12:23:37.114Z,83.40
2018-12-22T12:26:05.133Z,83.90
2018-12-22T12:28:32.998Z,84.20
2018-12-22T12:31:00.842Z,84.50
2018-12-22T12:33:28.617Z,85.00
2018-12-22T12:35:56.433Z,85.50
2018-12-22T12:38:24.357Z,85.40
2018-12-22T12:40:52.251Z,85.10
2018-12-22T12:43:20.187Z,85.10
2018-12-22T12:45:47.993Z,85.20
2018-12-22T12:48:16.093Z,85.10
2018-12-22T12:50:44.244Z,85.10
2018-12-22T12:53:12.195Z,85.30
2018-12-22T12:55:40.041Z,85.20
2018-12-22T12:58:08.034Z,85.40
2018-12-22T13:00:35.882Z,85.90
2018-12-22T13:03:03.841Z,85.60
2018-12-22T13:05:31.761Z,86.30
2018-12-22T13:07:59.554Z,87.00
2018-12-22T13:10:27.481Z,87.80
2018-12-22T13:13:42.553Z,88.60
2018-12-22T13:16:10.389Z,89.20
2018-12-22T13:18:38.414Z,89.90
2018-12-22T13:21:08.125Z,90.00
2018-12-22T13:23:36.233Z,90.10
2018-12-22T13:26:04.269Z,90.10
2018-12-22T13:31:06.302Z,90.00
2018-12-22T13:33:34.123Z,90.10
2018-12-22T13:36:02.222Z,90.10
2018-12-22T13:38:34.386Z,90.20
2018-12-22T13:41:02.502Z,90.30
2018-12-22T13:43:30.482Z,90.40
2018-12-22T13:45:58.513Z,90.40
2018-12-22T13:48:26.559Z,90.40
2018-12-22T13:50:54.662Z,90.50
2018-12-22T13:53:22.749Z,90.60
2018-12-22T13:55:50.601Z,90.40
2018-12-22T13:58:18.509Z,90.20
2018-12-22T14:00:47.400Z,90.20
2018-12-22T14:03:21.259Z,89.90
2018-12-22T14:05:49.772Z,90.40
2018-12-22T14:08:18.106Z,90.10
2018-12-22T14:10:52.342Z,90.00
2018-12-22T14:13:20.564Z,90.10
2018-12-22T14:15:56.637Z,90.40
2018-12-22T14:18:36.395Z,90.30
2018-12-22T14:21:04.449Z,90.40
2018-12-22T14:23:48.716Z,90.50
2018-12-22T14:26:16.613Z,90.50
2018-12-22T14:28:44.390Z,90.50
2018-12-22T14:31:12.417Z,90.50
2018-12-22T14:33:40.969Z,90.70
2018-12-22T14:36:11.797Z,90.90
2018-12-22T14:38:39.790Z,91.00
2018-12-22T14:41:07.905Z,91.10
2018-12-22T14:43:36.348Z,91.20
2018-12-22T14:46:04.826Z,91.30
2018-12-22T14:48:33.426Z,91.50
2018-12-22T14:51:01.389Z,91.70
2018-12-22T14:53:40.947Z,91.70
2018-12-22T14:56:08.922Z,91.90
2018-12-22T14:58:36.963Z,92.10
2018-12-22T15:01:04.952Z,92.10
2018-12-22T15:03:33.005Z,92.30
2018-12-22T15:06:03.015Z,92.30
2018-12-22T15:08:30.912Z,92.40
2018-12-22T15:10:58.818Z,92.50
2018-12-22T15:13:26.816Z,92.50
2018-12-22T15:15:54.637Z,92.50
2018-12-22T15:18:22.692Z,92.70
2018-12-22T15:20:50.863Z,92.60
2018-12-22T15:23:18.792Z,92.70
2018-12-22T15:25:46.782Z,92.90
2018-12-22T15:28:14.685Z,92.80
2018-12-22T15:30:42.578Z,92.90
2018-12-22T15:33:10.610Z,92.90
2018-12-22T15:35:38.642Z,92.90
2018-12-22T15:38:06.433Z,92.90
2018-12-22T15:40:34.446Z,92.90
2018-12-22T15:43:02.476Z,92.90
2018-12-22T15:45:30.528Z,92.80
2018-12-22T15:47:58.733Z,92.90
2018-12-22T15:50:30.215Z,92.80
2018-12-22T15:56:46.296Z,92.70
2018-12-22T15:59:14.500Z,92.70
2018-12-22T16:01:42.540Z,92.70
2018-12-22T16:04:10.528Z,93.10
2018-12-22T16:06:38.869Z,92.70
2018-12-22T16:09:07.362Z,92.90
2018-12-22T16:11:35.536Z,92.70
2018-12-22T16:14:03.720Z,93.10
2018-12-22T16:16:31.557Z,93.20
2018-12-22T16:19:03.258Z,93.70
2018-12-22T16:21:31.283Z,93.60
2018-12-22T16:23:59.204Z,93.70
2018-12-22T16:26:27.183Z,93.80
2018-12-22T16:29:10.223Z,93.70
2018-12-22T16:31:38.117Z,93.70
2018-12-22T16:34:18.180Z,93.80
2018-12-22T16:36:46.090Z,93.00
2018-12-22T16:39:14.142Z,92.70
2018-12-22T16:41:42.334Z,92.90
2018-12-22T16:44:15.360Z,92.70
2018-12-22T16:46:47.257Z,93.00
2018-12-22T16:49:18.377Z,92.90
2018-12-22T16:51:46.425Z,92.70
2018-12-22T16:54:14.229Z,92.90
2018-12-22T16:56:43.177Z,93.10
2018-12-22T16:59:11.105Z,93.40
2018-12-22T17:01:52.875Z,93.40
2018-12-22T17:04:21.709Z,93.10
2018-12-22T17:06:49.805Z,92.70
2018-12-22T17:09:17.629Z,92.60
2018-12-22T17:11:45.742Z,92.60
2018-12-22T17:14:20.261Z,92.50
2018-12-22T17:16:48.125Z,92.50
2018-12-22T17:19:18.329Z,92.50
2018-12-22T17:22:04.946Z,92.50
2018-12-22T17:24:48.038Z,92.50
2018-12-22T17:27:16.564Z,92.50
2018-12-22T17:29:44.757Z,92.30
2018-12-22T17:32:12.553Z,92.30
2018-12-22T17:34:40.536Z,92.40
2018-12-22T17:37:08.464Z,92.40
2018-12-22T17:39:36.853Z,92.30
2018-12-22T17:42:05.052Z,92.30
2018-12-22T17:44:33.393Z,92.40
2018-12-22T17:47:01.165Z,92.40
2018-12-22T17:49:29.079Z,92.30
2018-12-22T17:51:56.952Z,92.30
2018-12-22T17:54:24.703Z,92.30
2018-12-22T17:56:52.624Z,92.40
2018-12-22T17:59:20.651Z,92.70
2018-12-22T18:01:49.000Z,92.60
2018-12-22T18:04:16.764Z,92.60
2018-12-22T18:06:45.690Z,92.70
2018-12-22T18:09:13.664Z,92.20
2018-12-22T18:11:42.637Z,92.40
2018-12-22T18:14:10.629Z,92.70
2018-12-22T18:16:38.447Z,92.70
2018-12-22T18:19:06.248Z,92.90
2018-12-22T18:21:34.224Z,92.90
2018-12-22T18:24:02.391Z,92.90
2018-12-22T18:26:30.173Z,92.60
2018-12-22T18:28:58.393Z,92.50
2018-12-22T18:31:26.668Z,92.30
2018-12-22T18:33:54.870Z,92.20
2018-12-22T18:36:23.146Z,91.70
2018-12-22T18:38:51.007Z,91.40
2018-12-22T18:41:19.023Z,91.10
2018-12-22T18:43:46.936Z,90.60
2018-12-22T18:46:14.820Z,90.10
2018-12-22T18:48:44.519Z,90.50
2018-12-22T18:51:12.531Z,90.50
2018-12-22T18:53:43.503Z,90.50
2018-12-22T18:56:18.249Z,90.80
2018-12-22T18:58:47.445Z,91.20
2018-12-22T19:01:17.269Z,91.20
2018-12-22T19:03:52.059Z,90.80
2018-12-22T19:06:21.006Z,90.70
2018-12-22T19:08:51.289Z,91.30
2018-12-22T19:11:20.980Z,91.20
2018-12-22T19:13:49.197Z,90.90
2018-12-22T19:16:17.044Z,91.50
2018-12-22T19:18:44.947Z,91.00
2018-12-22T19:21:14.814Z,91.30
2018-12-22T19:23:43.104Z,91.10
2018-12-22T19:26:10.965Z,91.10
2018-12-22T19:28:38.804Z,91.20
2018-12-22T19:31:10.065Z,91.50
2018-12-22T19:33:38.060Z,91.40
2018-12-22T19:36:06.756Z,91.10
2018-12-22T19:38:34.630Z,91.00
2018-12-22T19:41:02.517Z,90.90
2018-12-22T19:43:30.562Z,90.80
2018-12-22T19:45:58.689Z,90.80
2018-12-22T19:48:32.761Z,90.70
2018-12-22T19:51:07.298Z,90.70
2018-12-22T19:53:35.234Z,90.60
2018-12-22T19:56:03.118Z,90.70
2018-12-22T19:58:31.391Z,90.80
2018-12-22T20:00:59.744Z,90.70
2018-12-22T20:03:27.854Z,91.40
2018-12-22T20:05:56.005Z,90.80
2018-12-22T20:08:23.836Z,90.60
2018-12-22T20:10:51.830Z,90.70
2018-12-22T20:13:19.847Z,90.60
2018-12-22T20:15:47.991Z,90.50
2018-12-22T20:18:15.911Z,90.20
2018-12-22T20:20:44.765Z,90.20
2018-12-22T20:23:12.534Z,90.00
2018-12-22T20:25:42.567Z,90.00
2018-12-22T20:28:10.349Z,90.00
2018-12-22T20:30:40.982Z,89.10
2018-12-22T20:33:08.813Z,88.80
2018-12-22T20:35:36.973Z,88.80
2018-12-22T20:38:05.163Z,88.40
2018-12-22T20:40:32.985Z,88.30
2018-12-22T20:43:01.068Z,87.80
2018-12-22T20:45:28.953Z,87.70
2018-12-22T20:47:56.702Z,87.60
2018-12-22T20:50:24.954Z,87.70
2018-12-22T20:52:53.023Z,87.80
2018-12-22T20:55:21.276Z,87.70
2018-12-22T21:02:56.801Z,88.40
2018-12-22T21:05:28.600Z,87.50
2018-12-22T21:07:57.603Z,86.80
2018-12-22T21:10:28.192Z,86.60
2018-12-22T21:12:56.349Z,87.20
2018-12-22T21:15:24.269Z,86.80
2018-12-22T21:17:52.057Z,87.70
2018-12-22T21:20:19.955Z,86.90
2018-12-22T21:22:47.969Z,87.60
2018-12-22T21:25:15.818Z,87.50
2018-12-22T21:27:43.874Z,87.20
2018-12-22T21:30:12.081Z,87.10
2018-12-22T21:32:40.506Z,88.10
2018-12-22T21:35:08.698Z,88.20
2018-12-22T21:40:11.308Z,87.70
2018-12-22T21:42:39.393Z,87.50
2018-12-22T21:45:07.305Z,88.80
2018-12-22T21:47:37.798Z,88.20
2018-12-22T21:50:06.202Z,87.80
2018-12-22T21:52:34.409Z,88.00
2018-12-22T21:55:02.981Z,87.80
2018-12-22T21:57:36.365Z,87.70
2018-12-22T22:00:05.263Z,87.90
2018-12-22T22:02:33.349Z,87.70
2018-12-22T22:05:02.136Z,88.00
2018-12-22T22:07:30.929Z,89.40
2018-12-22T22:09:58.890Z,87.50
2018-12-22T22:12:27.020Z,87.40
2018-12-22T22:14:55.021Z,87.50
2018-12-22T22:17:23.184Z,87.90
2018-12-22T22:19:51.201Z,88.00
2018-12-22T22:22:19.171Z,88.40
2018-12-22T22:24:47.006Z,88.00
2018-12-22T22:27:15.080Z,88.40
2018-12-22T22:29:43.088Z,88.60
2018-12-22T22:32:11.144Z,88.60
2018-12-22T22:34:45.500Z,88.40
2018-12-22T22:37:09.413Z,88.40
2018-12-22T22:39:37.310Z,88.70
2018-12-22T22:42:05.276Z,87.90
2018-12-22T22:44:33.419Z,88.20
2018-12-22T22:47:01.252Z,88.00
2018-12-22T22:49:29.038Z,88.20
2018-12-22T22:51:56.853Z,88.20
2018-12-22T22:54:25.057Z,88.10
2018-12-22T22:56:53.035Z,88.20
2018-12-22T22:59:20.897Z,87.70
2018-12-22T23:01:48.797Z,87.70
2018-12-22T23:04:16.592Z,87.60
2018-12-22T23:06:44.463Z,87.10
2018-12-22T23:09:12.265Z,87.10
2018-12-22T23:11:40.212Z,87.30
2018-12-22T23:14:08.127Z,87.40
2018-12-22T23:16:36.163Z,87.10
2018-12-22T23:19:04.204Z,86.80
2018-12-22T23:21:31.972Z,86.80
2018-12-22T23:23:59.737Z,86.80
2018-12-22T23:26:27.643Z,86.90
2018-12-22T23:28:55.774Z,86.90
2018-12-22T23:31:23.591Z,87.20
2018-12-22T23:33:51.417Z,87.40
2018-12-22T23:36:19.328Z,87.70
2018-12-22T23:38:47.141Z,88.60
2018-12-22T23:41:14.992Z,88.30
2018-12-22T23:43:43.022Z,88.30
2018-12-22T23:46:10.819Z,88.60
2018-12-22T23:48:38.681Z,88.40
2018-12-22T23:51:07.052Z,88.50
2018-12-22T23:53:34.893Z,88.10
2018-12-22T23:56:02.665Z,88.70
2018-12-22T23:58:30.628Z,88.90
